Time;durP1;ratioP1;P1;durP2;ratioP2;P2;SDS_P1;SDS_P2;PMS_P1;PMS_P2;Temp;Humidity;BMP_temperature;BMP_pressure;BME280_temperature;BME280_humidity;BME280_pressure;Samples;Min_cycle;Max_cycle;Signal;HPM_P1;HPM_P2
2022/01/01 00:00:09;;;;;;;38.28;22.85;;;13.40;85.10;;;;;;6096741;23;94866;-77
2022/01/01 00:02:38;;;;;;;95.70;63.50;;;13.40;85.10;;;;;;6125376;23;92379;-77
2022/01/01 00:05:07;;;;;;;33.17;19.50;;;13.30;85.20;;;;;;6124796;23;92418;-77
2022/01/01 00:07:35;;;;;;;32.95;18.10;;;13.30;85.20;;;;;;6125004;23;93102;-77
2022/01/01 00:10:03;;;;;;;42.30;20.48;;;13.30;85.10;;;;;;6122912;23;92781;-77
2022/01/01 00:12:30;;;;;;;37.15;19.23;;;13.30;85.10;;;;;;6125051;23;92324;-77
2022/01/01 00:14:57;;;;;;;33.67;21.08;;;13.30;85.00;;;;;;6124710;23;92359;-77
2022/01/01 00:17:24;;;;;;;41.95;20.52;;;13.30;84.90;;;;;;6123091;23;105822;-77
2022/01/01 00:19:51;;;;;;;40.92;17.38;;;13.30;85.10;;;;;;6123093;23;92518;-77
2022/01/01 00:22:18;;;;;;;34.08;17.48;;;13.30;85.00;;;;;;6124368;23;94970;-77
2022/01/01 00:24:45;;;;;;;33.10;17.23;;;13.30;84.90;;;;;;6123537;23;94813;-77
2022/01/01 00:27:12;;;;;;;37.30;17.30;;;13.30;85.00;;;;;;6098205;23;92919;-77
2022/01/01 00:29:39;;;;;;;34.05;19.33;;;13.30;85.10;;;;;;6123075;23;95453;-77
2022/01/01 00:32:06;;;;;;;35.42;18.35;;;13.30;85.10;;;;;;6124834;23;92441;-77
2022/01/01 00:34:35;;;;;;;35.55;19.58;;;13.40;85.00;;;;;;6125003;23;92454;-77
2022/01/01 00:37:03;;;;;;;41.42;20.48;;;13.30;85.10;;;;;;6098447;23;93028;-77
2022/01/01 00:39:30;;;;;;;49.08;20.67;;;13.30;85.10;;;;;;6125100;23;92889;-77
2022/01/01 00:41:57;;;;;;;42.20;19.55;;;13.30;85.20;;;;;;6125187;23;91641;-77
2022/01/01 00:44:24;;;;;;;42.25;21.27;;;13.30;85.30;;;;;;6098995;23;92440;-77
2022/01/01 00:46:51;;;;;;;46.00;19.67;;;13.20;85.30;;;;;;6098520;23;92891;-77
2022/01/01 00:49:20;;;;;;;46.80;20.80;;;13.30;85.40;;;;;;6121525;23;95094;-77
2022/01/01 00:51:47;;;;;;;44.42;21.83;;;13.20;85.30;;;;;;6125198;23;92422;-77
2022/01/01 00:54:14;;;;;;;43.28;21.83;;;13.30;85.40;;;;;;6124734;23;92422;-77
2022/01/01 00:56:41;;;;;;;52.35;23.00;;;13.30;85.30;;;;;;6124761;23;93015;-77
2022/01/01 00:59:08;;;;;;;51.70;24.73;;;13.30;85.30;;;;;;6124507;23;92968;-77
2022/01/01 01:01:36;;;;;;;56.08;29.20;;;13.30;85.30;;;;;;6122503;23;103096;-77
2022/01/01 01:04:04;;;;;;;52.53;28.13;;;13.30;85.20;;;;;;6098741;23;92431;-77
2022/01/01 01:06:31;;;;;;;44.20;23.98;;;13.20;85.20;;;;;;6124437;23;92223;-77
2022/01/01 01:09:00;;;;;;;62.70;37.78;;;13.20;85.20;;;;;;6097412;23;94666;-72
2022/01/01 01:11:28;;;;;;;51.10;25.08;;;13.20;85.90;;;;;;6098146;23;92386;-77
2022/01/01 01:14:00;;;;;;;48.30;23.65;;;13.20;85.10;;;;;;6122668;23;94824;-72
2022/01/01 01:16:28;;;;;;;45.03;22.35;;;13.20;85.20;;;;;;6124264;23;93094;-72
2022/01/01 01:18:57;;;;;;;45.22;23.85;;;13.20;85.20;;;;;;6097709;23;95337;-77
2022/01/01 01:21:25;;;;;;;47.00;22.25;;;13.20;85.30;;;;;;6124245;23;92336;-77
2022/01/01 01:23:53;;;;;;;44.10;23.17;;;13.10;85.40;;;;;;6124267;23;92450;-77
2022/01/01 01:26:22;;;;;;;47.13;23.35;;;13.10;85.40;;;;;;6123838;23;93005;-72
2022/01/01 01:28:50;;;;;;;46.33;22.35;;;13.10;85.50;;;;;;6097379;23;94203;-72
2022/01/01 01:31:18;;;;;;;45.08;21.55;;;13.10;85.40;;;;;;6098728;23;91741;-77
2022/01/01 01:33:45;;;;;;;42.72;20.30;;;13.10;85.40;;;;;;6098491;23;92371;-72
2022/01/01 01:36:12;;;;;;;46.53;20.80;;;13.00;85.40;;;;;;6096517;23;109123;-72
2022/01/01 01:38:39;;;;;;;40.80;20.02;;;13.10;85.40;;;;;;6096671;23;94897;-77
2022/01/01 01:41:08;;;;;;;45.53;19.45;;;13.00;85.30;;;;;;6124444;23;92419;-72
2022/01/01 01:43:36;;;;;;;45.70;19.02;;;13.10;85.40;;;;;;6098352;23;92904;-72
2022/01/01 01:46:05;;;;;;;43.30;23.50;;;13.00;85.50;;;;;;6123766;23;92922;-72
2022/01/01 01:48:34;;;;;;;62.50;40.13;;;13.00;85.40;;;;;;6073192;23;93869;-72
2022/01/01 01:51:02;;;;;;;51.05;20.45;;;13.10;86.00;;;;;;6123525;23;92596;-72
2022/01/01 01:53:29;;;;;;;50.65;24.13;;;13.10;85.40;;;;;;6097315;23;92459;-72
2022/01/01 01:55:58;;;;;;;57.15;38.45;;;13.10;85.20;;;;;;6124403;23;92407;-72
2022/01/01 01:58:28;;;;;;;49.55;26.45;;;13.10;85.20;;;;;;6124322;23;93063;-72
2022/01/01 02:03:42;;;;;;;50.75;32.63;;;13.10;85.10;;;;;;6100745;23;94885;-72
2022/01/01 02:06:09;;;;;;;55.85;39.25;;;13.10;85.10;;;;;;6097107;23;92927;-72
2022/01/01 02:08:36;;;;;;;51.88;27.65;;;13.10;85.20;;;;;;6123595;23;92729;-72
2022/01/01 02:11:03;;;;;;;46.83;26.33;;;13.10;85.00;;;;;;6123399;23;92373;-72
2022/01/01 02:13:40;;;;;;;56.88;29.17;;;13.10;85.00;;;;;;6123614;23;92536;-72
2022/01/01 02:16:39;;;;;;;57.53;32.63;;;13.10;85.00;;;;;;6121465;23;94054;-72
2022/01/01 02:18:58;;;;;;;58.53;33.80;;;13.10;85.10;;;;;;6122908;23;97059;-72
2022/01/01 02:21:29;;;;;;;63.40;31.25;;;13.00;85.20;;;;;;6122156;23;92219;-72
2022/01/01 02:23:59;;;;;;;62.83;34.38;;;13.00;85.20;;;;;;6123887;23;92395;-72
2022/01/01 02:26:33;;;;;;;62.40;36.00;;;13.10;85.20;;;;;;6123520;23;92866;-72
2022/01/01 02:29:00;;;;;;;69.20;36.33;;;13.10;85.20;;;;;;6096022;23;94766;-72
2022/01/01 02:31:27;;;;;;;65.30;36.05;;;13.00;85.30;;;;;;6122903;23;101355;-72
2022/01/01 02:33:54;;;;;;;70.60;34.22;;;13.10;85.40;;;;;;6072620;23;93116;-72
2022/01/01 02:36:33;;;;;;;69.18;35.58;;;13.00;85.40;;;;;;6096434;23;94258;-72
2022/01/01 02:39:00;;;;;;;69.20;35.42;;;13.00;85.30;;;;;;6122117;23;92399;-72
2022/01/01 02:41:27;;;;;;;67.55;33.40;;;13.00;85.20;;;;;;6097071;23;92505;-72
2022/01/01 02:43:54;;;;;;;64.85;33.00;;;13.10;85.10;;;;;;6122945;23;92385;-72
2022/01/01 02:46:21;;;;;;;63.03;32.42;;;13.10;85.10;;;;;;6096796;23;94268;-72
2022/01/01 02:48:48;;;;;;;72.18;35.22;;;13.10;85.10;;;;;;6121976;23;92382;-72
2022/01/01 02:51:15;;;;;;;62.05;33.15;;;13.10;85.10;;;;;;6072507;23;92834;-72
2022/01/01 02:53:43;;;;;;;68.13;34.25;;;13.10;85.00;;;;;;6095826;23;94823;-72
2022/01/01 02:56:10;;;;;;;59.65;32.72;;;13.10;85.10;;;;;;6096643;23;92873;-72
2022/01/01 02:58:37;;;;;;;59.25;33.15;;;13.10;85.00;;;;;;6097073;23;92530;-72
2022/01/01 03:01:04;;;;;;;68.15;35.30;;;13.10;85.60;;;;;;6097607;23;93108;-73
2022/01/01 03:03:31;;;;;;;63.92;32.78;;;13.10;85.20;;;;;;6123248;23;92454;-72
2022/01/01 03:05:58;;;;;;;63.00;32.25;;;13.10;85.00;;;;;;6096722;23;92985;-72
2022/01/01 03:08:25;;;;;;;63.25;34.15;;;13.10;84.90;;;;;;6072125;23;93076;-72
2022/01/01 03:10:52;;;;;;;64.53;34.05;;;13.10;85.10;;;;;;6123968;23;92167;-72
2022/01/01 03:13:19;;;;;;;66.22;33.42;;;13.10;85.00;;;;;;6121423;23;92393;-70
2022/01/01 03:15:46;;;;;;;66.47;35.40;;;13.10;84.80;;;;;;6096524;23;93056;-71
2022/01/01 03:18:13;;;;;;;63.83;34.55;;;13.10;84.80;;;;;;6121310;23;94903;-71
2022/01/01 03:20:40;;;;;;;79.35;33.67;;;13.10;84.60;;;;;;6096991;23;92425;-72
2022/01/01 03:23:07;;;;;;;61.88;33.92;;;13.20;84.60;;;;;;6123293;23;92287;-72
2022/01/01 03:25:34;;;;;;;67.03;34.88;;;13.20;84.50;;;;;;6122965;23;93082;-72
2022/01/01 03:28:01;;;;;;;61.40;33.45;;;13.10;84.50;;;;;;6123103;23;94727;-72
2022/01/01 03:30:28;;;;;;;63.97;33.55;;;13.20;84.60;;;;;;6047578;23;92845;-72
2022/01/01 03:32:55;;;;;;;64.00;34.00;;;13.20;84.60;;;;;;6096827;23;92556;-72
2022/01/01 03:35:22;;;;;;;68.47;34.10;;;13.20;84.40;;;;;;6122874;23;91669;-72
2022/01/01 03:37:49;;;;;;;67.88;34.20;;;13.20;84.40;;;;;;6121185;23;93409;-71
2022/01/01 03:40:16;;;;;;;65.28;33.30;;;13.10;84.50;;;;;;6122859;23;92880;-71
2022/01/01 03:42:43;;;;;;;71.43;35.17;;;13.10;84.60;;;;;;6095353;23;94840;-71
2022/01/01 03:45:10;;;;;;;68.80;34.78;;;13.20;84.70;;;;;;6096744;23;93273;-72
2022/01/01 03:47:37;;;;;;;64.88;33.20;;;13.20;84.60;;;;;;6121986;23;105843;-72
2022/01/01 03:50:05;;;;;;;64.60;34.38;;;13.20;84.60;;;;;;6121009;23;92892;-72
2022/01/01 03:52:34;;;;;;;61.90;33.88;;;13.20;84.50;;;;;;6122739;23;92373;-72
2022/01/01 03:55:01;;;;;;;64.47;33.88;;;13.20;84.50;;;;;;6121282;23;92844;-72
2022/01/01 03:57:28;;;;;;;65.97;34.33;;;13.20;84.50;;;;;;6123719;23;94197;-72
2022/01/01 03:59:55;;;;;;;70.05;34.20;;;13.20;84.40;;;;;;6049646;23;91739;-71
2022/01/01 04:02:22;;;;;;;61.85;34.47;;;13.20;84.30;;;;;;6123514;23;92594;-72
2022/01/01 04:04:49;;;;;;;70.72;35.78;;;13.20;84.30;;;;;;6097583;23;94317;-71
2022/01/01 04:07:16;;;;;;;69.60;37.50;;;13.20;84.30;;;;;;6122726;23;97788;-71
2022/01/01 04:09:43;;;;;;;69.88;36.10;;;13.20;84.30;;;;;;6097962;23;92440;-72
2022/01/01 04:12:10;;;;;;;71.95;36.97;;;13.20;84.20;;;;;;6122624;23;92416;-72
2022/01/01 04:14:37;;;;;;;70.57;36.80;;;13.20;84.20;;;;;;6122607;23;93013;-72
2022/01/01 04:17:04;;;;;;;70.47;38.38;;;13.30;84.20;;;;;;6121960;23;110968;-71
2022/01/01 04:19:39;;;;;;;69.43;39.92;;;13.20;84.20;;;;;;6124237;23;92402;-71
2022/01/01 04:22:11;;;;;;;72.43;38.58;;;13.20;84.20;;;;;;6124551;23;92418;-71
2022/01/01 04:24:39;;;;;;;79.72;43.72;;;13.30;84.10;;;;;;6124525;23;94278;-71
2022/01/01 04:27:07;;;;;;;81.13;42.13;;;13.20;84.10;;;;;;6124686;23;92945;-71
2022/01/01 04:29:34;;;;;;;84.20;45.15;;;13.20;84.10;;;;;;6097770;23;92413;-72
2022/01/01 04:32:02;;;;;;;84.20;45.83;;;13.20;84.10;;;;;;6072441;23;94917;-72
2022/01/01 04:34:29;;;;;;;93.00;47.47;;;13.20;84.10;;;;;;6097746;23;97657;-71
2022/01/01 04:37:11;;;;;;;92.35;47.78;;;13.20;84.00;;;;;;6073416;23;95510;-72
2022/01/01 04:39:38;;;;;;;85.53;48.92;;;13.20;84.00;;;;;;6124357;23;92462;-71
2022/01/01 04:42:06;;;;;;;91.35;52.47;;;13.20;84.00;;;;;;6124691;23;92454;-71
2022/01/01 04:44:33;;;;;;;88.78;50.03;;;13.20;84.10;;;;;;6097809;23;93044;-71
2022/01/01 04:47:00;;;;;;;92.43;50.38;;;13.30;84.00;;;;;;6072962;23;110994;-71
2022/01/01 04:49:27;;;;;;;91.57;51.78;;;13.20;84.10;;;;;;6123998;23;91736;-72
2022/01/01 04:51:53;;;;;;;103.05;58.47;;;13.20;84.00;;;;;;6124598;23;92413;-71
2022/01/01 04:54:21;;;;;;;95.43;57.08;;;13.20;84.10;;;;;;6124416;23;93054;-71
2022/01/01 04:56:48;;;;;;;97.88;57.05;;;13.10;84.30;;;;;;6122875;23;94720;-70
2022/01/01 04:59:16;;;;;;;94.03;54.05;;;13.10;84.20;;;;;;6098034;23;93331;-70
2022/01/01 05:01:44;;;;;;;101.72;54.67;;;13.20;84.20;;;;;;6124168;23;92611;-70
2022/01/01 05:04:11;;;;;;;93.32;53.38;;;13.20;84.20;;;;;;6123075;23;93040;-70
2022/01/01 05:06:41;;;;;;;94.40;52.80;;;13.20;84.20;;;;;;6123751;23;92849;-70
2022/01/01 05:09:09;;;;;;;88.38;49.92;;;13.20;84.10;;;;;;6122203;23;92456;-70
2022/01/01 05:11:36;;;;;;;91.90;53.53;;;13.20;84.20;;;;;;6123154;23;105788;-70
2022/01/01 05:14:03;;;;;;;91.78;52.03;;;13.20;84.20;;;;;;6122639;23;93354;-71
2022/01/01 05:16:30;;;;;;;92.53;53.22;;;13.20;84.40;;;;;;6072967;23;92504;-70
2022/01/01 05:18:57;;;;;;;86.03;51.45;;;13.20;84.30;;;;;;6124147;23;92492;-70
2022/01/01 05:21:24;;;;;;;86.70;53.08;;;13.20;84.30;;;;;;6122865;23;94857;-70
2022/01/01 05:23:51;;;;;;;98.00;52.22;;;13.20;84.30;;;;;;6123654;23;93070;-70
2022/01/01 05:26:18;;;;;;;87.63;52.35;;;13.20;84.20;;;;;;6123840;23;92844;-70
2022/01/01 05:28:48;;;;;;;89.85;52.00;;;13.20;84.20;;;;;;6097649;23;92415;-70
2022/01/01 05:31:17;;;;;;;86.25;48.83;;;13.20;84.40;;;;;;6074634;23;92858;-70
2022/01/01 05:33:44;;;;;;;94.25;54.38;;;13.20;84.40;;;;;;6123740;23;92828;-70
2022/01/01 05:36:11;;;;;;;90.05;52.38;;;13.20;84.40;;;;;;6123818;23;92852;-70
2022/01/01 05:38:38;;;;;;;94.55;50.67;;;13.20;84.40;;;;;;6124433;23;92295;-70
2022/01/01 05:41:05;;;;;;;93.22;53.80;;;13.20;84.40;;;;;;6124176;23;92441;-70
2022/01/01 05:43:32;;;;;;;81.00;49.95;;;13.20;84.50;;;;;;6096489;23;111293;-70
2022/01/01 05:45:58;;;;;;;84.55;48.58;;;13.20;84.50;;;;;;6096258;23;94787;-70
2022/01/01 05:48:26;;;;;;;89.57;51.03;;;13.20;84.60;;;;;;6097871;23;95499;-70
2022/01/01 05:50:53;;;;;;;85.32;50.45;;;13.20;84.60;;;;;;6097472;23;93249;-70
2022/01/01 05:53:20;;;;;;;84.93;49.55;;;13.20;84.60;;;;;;6098120;23;92515;-70
2022/01/01 05:55:48;;;;;;;89.80;48.90;;;13.20;84.70;;;;;;6123881;23;92970;-70
2022/01/01 05:58:15;;;;;;;95.43;51.40;;;13.20;84.90;;;;;;6124155;23;92398;-70
2022/01/01 06:00:43;;;;;;;84.20;50.55;;;13.10;84.90;;;;;;6122369;23;92500;-70
2022/01/01 06:03:10;;;;;;;100.15;50.88;;;13.10;85.00;;;;;;6124793;23;92314;-70
2022/01/01 06:05:37;;;;;;;88.47;47.50;;;13.20;85.20;;;;;;6096810;23;93225;-70
2022/01/01 06:08:04;;;;;;;97.75;50.85;;;13.20;85.10;;;;;;6124043;23;92284;-70
2022/01/01 06:10:32;;;;;;;94.60;50.72;;;13.20;85.10;;;;;;6122694;23;95117;-70
2022/01/01 06:12:58;;;;;;;92.35;48.45;;;13.20;84.90;;;;;;6123708;23;92828;-70
2022/01/01 06:15:25;;;;;;;91.63;45.20;;;13.20;84.90;;;;;;6073354;23;92551;-70
2022/01/01 06:17:52;;;;;;;82.90;46.50;;;13.20;84.90;;;;;;6123564;23;92481;-70
2022/01/01 06:20:19;;;;;;;79.05;42.75;;;13.20;85.00;;;;;;6123875;23;92982;-70
2022/01/01 06:23:02;;;;;;;77.38;42.25;;;13.20;85.10;;;;;;6123661;23;93048;-70
2022/01/01 06:25:29;;;;;;;81.00;40.25;;;13.20;85.20;;;;;;6072880;23;96319;-71
2022/01/01 06:27:56;;;;;;;72.22;39.65;;;13.20;85.20;;;;;;6097668;23;95552;-71
2022/01/01 06:30:23;;;;;;;78.57;41.17;;;13.20;85.20;;;;;;6123929;23;92469;-70
2022/01/01 06:32:51;;;;;;;81.15;38.95;;;13.20;85.10;;;;;;6146694;22;95661;-70
2022/01/01 06:35:18;;;;;;;72.70;38.50;;;13.20;85.20;;;;;;6122322;23;94740;-70
2022/01/01 06:37:45;;;;;;;67.93;35.50;;;13.20;85.40;;;;;;6097356;23;92452;-70
2022/01/01 06:40:12;;;;;;;75.32;36.83;;;13.20;85.40;;;;;;6073296;23;92535;-70
2022/01/01 06:42:39;;;;;;;69.30;35.03;;;13.20;85.60;;;;;;6121477;23;107705;-71
2022/01/01 06:45:06;;;;;;;72.93;34.10;;;13.20;85.70;;;;;;6121755;23;94194;-70
2022/01/01 06:47:33;;;;;;;79.72;35.75;;;13.20;85.80;;;;;;6097716;23;92377;-70
2022/01/01 06:50:00;;;;;;;64.78;32.83;;;13.20;86.00;;;;;;6121867;23;93183;-70
2022/01/01 06:52:27;;;;;;;68.40;33.80;;;13.20;86.00;;;;;;6097917;23;94120;-70
2022/01/01 06:54:54;;;;;;;66.63;31.35;;;13.20;86.00;;;;;;6097063;23;92426;-70
2022/01/01 06:57:21;;;;;;;71.95;29.83;;;13.20;86.00;;;;;;6123614;23;92464;-70
2022/01/01 06:59:48;;;;;;;63.92;31.15;;;13.20;86.00;;;;;;6095782;23;95265;-70
2022/01/01 07:02:15;;;;;;;69.10;31.20;;;13.20;86.00;;;;;;6048466;23;95670;-71
2022/01/01 07:04:42;;;;;;;66.38;29.65;;;13.20;86.00;;;;;;6121803;23;95705;-70
2022/01/01 07:07:09;;;;;;;63.28;30.17;;;13.20;86.00;;;;;;6072299;23;92503;-70
2022/01/01 07:09:36;;;;;;;66.82;29.25;;;13.20;85.90;;;;;;6097350;23;92539;-70
2022/01/01 07:12:04;;;;;;;57.05;26.10;;;13.30;85.90;;;;;;6122194;23;108203;-70
2022/01/01 07:14:30;;;;;;;63.60;27.23;;;13.30;85.90;;;;;;6123246;23;92856;-70
2022/01/01 07:16:57;;;;;;;62.83;26.13;;;13.30;85.90;;;;;;6123301;23;91648;-70
2022/01/01 07:19:24;;;;;;;57.45;28.02;;;13.30;85.90;;;;;;6123313;23;92483;-70
2022/01/01 07:21:51;;;;;;;61.60;26.83;;;13.30;86.00;;;;;;6120940;23;93042;-70
2022/01/01 07:24:18;;;;;;;61.10;26.40;;;13.30;85.90;;;;;;6121548;23;94740;-71
2022/01/01 07:26:45;;;;;;;59.75;26.60;;;13.40;85.90;;;;;;6072564;23;92461;-70
2022/01/01 07:29:12;;;;;;;56.53;25.38;;;13.30;85.90;;;;;;6097350;23;92780;-70
2022/01/01 07:31:39;;;;;;;51.90;25.00;;;13.40;85.80;;;;;;6123877;23;93129;-70
2022/01/01 07:34:06;;;;;;;53.95;25.33;;;13.30;85.90;;;;;;6097623;23;92775;-70
2022/01/01 07:36:33;;;;;;;58.70;25.63;;;13.40;85.90;;;;;;6122333;23;92433;-70
2022/01/01 07:38:59;;;;;;;57.00;26.50;;;13.30;85.90;;;;;;6121984;23;92472;-70
2022/01/01 07:41:26;;;;;;;57.33;26.65;;;13.30;86.00;;;;;;6125027;23;92494;-70
2022/01/01 07:43:53;;;;;;;58.35;25.48;;;13.30;86.10;;;;;;6097323;23;99178;-71
2022/01/01 07:46:20;;;;;;;62.53;25.60;;;13.40;86.10;;;;;;6124101;23;92468;-70
2022/01/01 07:48:47;;;;;;;63.92;26.88;;;13.40;86.10;;;;;;6122872;23;94784;-71
2022/01/01 07:51:14;;;;;;;54.13;26.63;;;13.40;86.80;;;;;;6072876;23;96419;-70
2022/01/01 07:53:41;;;;;;;59.33;25.95;;;13.40;86.20;;;;;;6097838;23;92994;-70
2022/01/01 07:56:08;;;;;;;61.40;26.15;;;13.40;86.30;;;;;;6097127;23;104498;-70
2022/01/01 07:58:35;;;;;;;54.38;24.48;;;13.40;86.40;;;;;;6098168;23;92496;-70
2022/01/01 08:01:02;;;;;;;61.28;24.33;;;13.40;86.20;;;;;;6097750;23;92997;-70
2022/01/01 08:03:29;;;;;;;63.72;25.48;;;13.40;86.30;;;;;;6147399;22;94324;-70
2022/01/01 08:05:56;;;;;;;56.33;24.55;;;13.40;86.40;;;;;;6074745;23;91753;-70
2022/01/01 08:08:23;;;;;;;54.38;24.70;;;13.40;86.30;;;;;;6124795;23;92669;-70
2022/01/01 08:10:50;;;;;;;57.63;23.45;;;13.40;86.50;;;;;;6124714;23;92992;-70
2022/01/01 08:13:25;;;;;;;51.60;23.90;;;13.50;86.50;;;;;;6122994;23;94893;-70
2022/01/01 08:15:54;;;;;;;44.70;22.38;;;13.50;86.40;;;;;;6124888;23;92790;-70
2022/01/01 08:18:21;;;;;;;57.72;23.27;;;13.50;86.40;;;;;;6124821;23;92676;-70
2022/01/01 08:20:48;;;;;;;49.08;23.15;;;13.50;86.20;;;;;;6124687;23;93991;-70
2022/01/01 08:23:15;;;;;;;48.22;24.70;;;13.60;86.20;;;;;;6097322;23;95622;-70
2022/01/01 08:25:42;;;;;;;50.70;23.23;;;13.60;86.10;;;;;;6122686;23;92393;-70
2022/01/01 08:28:10;;;;;;;47.33;22.70;;;13.60;86.00;;;;;;6122890;23;93045;-70
2022/01/01 08:30:37;;;;;;;55.05;24.25;;;13.70;86.10;;;;;;6123099;23;93302;-70
2022/01/01 08:33:04;;;;;;;40.55;22.48;;;13.70;86.00;;;;;;6097889;23;93873;-70
2022/01/01 08:35:32;;;;;;;43.80;22.10;;;13.70;85.90;;;;;;6098188;23;93358;-70
2022/01/01 08:38:01;;;;;;;48.03;22.98;;;13.80;85.80;;;;;;6071724;23;94866;-70
2022/01/01 08:40:28;;;;;;;44.83;22.95;;;13.70;85.80;;;;;;6124347;23;93011;-70
2022/01/01 08:42:55;;;;;;;49.33;23.55;;;13.80;85.70;;;;;;6073260;23;92822;-70
2022/01/01 08:45:23;;;;;;;49.10;22.42;;;13.80;85.70;;;;;;6098465;23;92657;-70
2022/01/01 08:47:50;;;;;;;42.90;22.52;;;13.80;85.60;;;;;;6124517;23;92406;-70
2022/01/01 08:50:18;;;;;;;43.97;21.83;;;13.80;85.60;;;;;;6122849;23;92934;-70
2022/01/01 08:52:45;;;;;;;48.08;23.90;;;13.80;85.60;;;;;;6147364;22;95216;-70
2022/01/01 08:55:12;;;;;;;51.75;24.63;;;13.80;85.90;;;;;;6098397;23;91740;-70
2022/01/01 08:57:38;;;;;;;54.70;26.52;;;13.80;85.80;;;;;;6124316;23;92990;-70
2022/01/01 09:00:08;;;;;;;55.67;26.92;;;13.80;86.00;;;;;;6073159;23;95901;-70
2022/01/01 09:02:35;;;;;;;58.78;26.40;;;13.80;86.20;;;;;;6096010;23;95185;-71
2022/01/01 09:05:03;;;;;;;52.55;26.75;;;13.80;86.30;;;;;;6124210;23;92286;-70
2022/01/01 09:07:31;;;;;;;60.95;28.45;;;13.80;86.50;;;;;;6124004;23;101048;-70
2022/01/01 09:09:59;;;;;;;65.43;29.67;;;13.80;86.60;;;;;;6124355;23;93023;-70
2022/01/01 09:12:28;;;;;;;52.03;27.25;;;13.80;86.60;;;;;;6097729;23;92815;-70
2022/01/01 09:14:56;;;;;;;56.70;29.98;;;13.80;86.80;;;;;;6124424;23;92358;-70
2022/01/01 09:17:23;;;;;;;57.17;29.15;;;13.80;86.90;;;;;;6124052;23;92396;-71
2022/01/01 09:19:50;;;;;;;56.53;30.25;;;13.80;86.80;;;;;;6098704;23;92094;-70
2022/01/01 09:22:18;;;;;;;64.88;29.75;;;13.80;86.90;;;;;;6124559;23;92692;-71
2022/01/01 09:24:45;;;;;;;63.38;34.72;;;13.80;86.90;;;;;;6123007;23;92378;-72
2022/01/01 09:27:12;;;;;;;54.63;29.00;;;13.80;86.80;;;;;;6096658;23;94822;-71
2022/01/01 09:29:39;;;;;;;56.03;29.23;;;13.90;86.80;;;;;;6124221;23;92981;-72
2022/01/01 09:32:06;;;;;;;54.10;28.05;;;13.90;86.60;;;;;;6124037;23;92863;-71
2022/01/01 09:34:33;;;;;;;56.65;28.63;;;13.90;86.40;;;;;;6097715;23;92474;-72
2022/01/01 09:37:00;;;;;;;58.38;29.70;;;14.00;87.00;;;;;;6073730;23;92545;-72
2022/01/01 09:39:27;;;;;;;51.90;27.42;;;14.00;86.20;;;;;;6123117;23;106011;-72
2022/01/01 09:41:54;;;;;;;47.38;28.27;;;14.10;86.10;;;;;;6097656;23;93888;-71
2022/01/01 09:44:21;;;;;;;50.28;27.80;;;14.10;85.70;;;;;;6124832;23;91679;-72
2022/01/01 09:46:50;;;;;;;48.92;27.45;;;14.20;85.70;;;;;;6097729;23;92390;-72
2022/01/01 09:49:18;;;;;;;50.65;26.63;;;14.20;85.40;;;;;;6097206;23;93070;-71
2022/01/01 09:51:46;;;;;;;42.20;25.83;;;14.30;85.30;;;;;;6096147;23;94825;-72
2022/01/01 09:54:13;;;;;;;46.75;24.30;;;14.30;85.00;;;;;;6097428;23;92426;-71
2022/01/01 09:56:40;;;;;;;45.85;24.40;;;14.30;84.70;;;;;;6124272;23;92403;-71
2022/01/01 09:59:07;;;;;;;38.75;23.33;;;14.30;84.60;;;;;;6123710;23;93054;-71
2022/01/01 10:01:34;;;;;;;38.85;23.23;;;14.40;84.50;;;;;;6122622;23;92878;-72
2022/01/01 10:04:12;;;;;;;36.05;23.52;;;14.40;84.30;;;;;;6097989;23;98798;-72
2022/01/01 10:06:40;;;;;;;38.53;22.83;;;14.50;83.90;;;;;;6097863;23;92477;-72
2022/01/01 10:09:09;;;;;;;37.75;22.80;;;14.50;83.80;;;;;;6124705;23;92180;-72
2022/01/01 10:11:36;;;;;;;41.70;20.60;;;14.60;83.70;;;;;;6124147;23;92439;-72
2022/01/01 10:14:07;;;;;;;44.00;23.50;;;14.60;83.60;;;;;;6124467;23;92761;-72
2022/01/01 10:16:42;;;;;;;35.00;20.85;;;14.70;83.60;;;;;;6122957;23;94847;-72
2022/01/01 10:19:09;;;;;;;33.97;19.70;;;14.70;83.30;;;;;;6122304;23;94072;-72
2022/01/01 10:21:40;;;;;;;31.40;18.35;;;14.60;83.20;;;;;;6098135;23;92966;-72
2022/01/01 10:24:14;;;;;;;31.35;18.58;;;14.60;83.20;;;;;;6123963;23;92349;-72
2022/01/01 10:29:31;;;;;;;31.35;20.25;;;14.70;83.20;;;;;;6123813;23;93103;-72
2022/01/01 10:32:01;;;;;;;30.95;17.35;;;14.70;83.50;;;;;;6124095;23;93394;-71
2022/01/01 10:34:34;;;;;;;28.92;17.23;;;14.80;82.70;;;;;;6122374;23;91794;-72
2022/01/01 10:37:17;;;;;;;23.20;14.68;;;14.70;82.60;;;;;;6122241;23;92515;-72
2022/01/01 10:39:52;;;;;;;27.83;15.10;;;14.70;82.50;;;;;;6098020;23;93045;-72
2022/01/01 10:42:19;;;;;;;24.98;14.75;;;14.80;82.50;;;;;;6120873;23;94749;-72
2022/01/01 10:44:49;;;;;;;25.55;14.38;;;14.80;82.40;;;;;;6123418;23;107031;-72
2022/01/01 10:47:27;;;;;;;24.92;14.20;;;14.80;82.30;;;;;;6147022;22;92410;-72
2022/01/01 10:50:14;;;;;;;20.52;12.90;;;14.90;82.20;;;;;;6122092;23;94056;-72
2022/01/01 10:52:45;;;;;;;20.92;13.57;;;14.80;82.00;;;;;;6123951;23;92961;-72
2022/01/01 10:55:13;;;;;;;24.48;13.95;;;14.80;81.90;;;;;;6121961;23;92474;-71
2022/01/01 10:57:43;;;;;;;23.75;13.32;;;14.90;82.00;;;;;;6098342;23;92404;-72
2022/01/01 11:00:12;;;;;;;22.58;13.88;;;14.90;82.00;;;;;;6124199;23;92294;-71
2022/01/01 11:02:51;;;;;;;25.73;12.75;;;14.90;81.90;;;;;;6121712;23;94789;-72
2022/01/01 11:05:35;;;;;;;21.40;14.10;;;14.90;81.90;;;;;;6123066;23;92429;-71
2022/01/01 11:08:07;;;;;;;23.83;12.75;;;14.90;81.70;;;;;;6120475;23;94818;-71
2022/01/01 11:10:36;;;;;;;18.05;12.07;;;14.90;81.70;;;;;;6123255;23;94166;-71
2022/01/01 11:13:04;;;;;;;22.15;13.05;;;15.00;81.60;;;;;;6123713;23;93246;-72
2022/01/01 11:15:32;;;;;;;15.63;10.20;;;15.00;81.50;;;;;;6096514;23;92482;-71
2022/01/01 11:18:04;;;;;;;18.52;11.82;;;15.10;81.30;;;;;;6097040;23;92408;-71
2022/01/01 11:20:36;;;;;;;23.98;11.60;;;15.10;81.30;;;;;;6120953;23;101057;-72
2022/01/01 11:23:05;;;;;;;18.48;10.25;;;15.10;81.00;;;;;;6123592;23;92738;-72
2022/01/01 11:25:34;;;;;;;30.23;17.00;;;15.20;80.80;;;;;;6121445;23;91708;-72
2022/01/01 11:28:02;;;;;;;23.92;13.77;;;15.30;80.70;;;;;;6123679;23;92436;-72
2022/01/01 11:30:30;;;;;;;20.95;11.93;;;15.30;80.50;;;;;;6123220;23;92972;-72
2022/01/01 11:33:03;;;;;;;15.15;10.02;;;15.40;80.30;;;;;;6122166;23;95158;-72
2022/01/01 11:35:34;;;;;;;18.00;11.77;;;15.40;80.00;;;;;;6123422;23;92381;-72
2022/01/01 11:38:04;;;;;;;18.92;13.05;;;15.40;79.90;;;;;;6123529;23;92785;-72
2022/01/01 11:40:56;;;;;;;15.13;9.88;;;15.40;79.90;;;;;;6123160;23;92490;-73
2022/01/01 11:43:43;;;;;;;16.42;9.85;;;15.40;79.90;;;;;;6123484;23;96067;-72
2022/01/01 11:46:18;;;;;;;17.63;8.82;;;15.40;79.80;;;;;;6124137;23;92352;-72
2022/01/01 11:48:47;;;;;;;17.33;9.77;;;15.30;79.70;;;;;;6123944;23;92348;-72
2022/01/01 11:51:25;;;;;;;15.85;9.38;;;15.30;79.80;;;;;;6122002;23;96323;-72
2022/01/01 11:54:29;;;;;;;24.85;13.48;;;15.30;79.70;;;;;;6123878;23;96689;-72
2022/01/01 11:57:05;;;;;;;;;;;15.40;79.60;;;;;;6097501;23;92305;-72
2022/01/01 11:59:38;;;;;;;16.15;8.82;;;15.20;79.70;;;;;;6123748;23;94759;-72
2022/01/01 12:02:20;;;;;;;15.88;9.07;;;15.20;80.10;;;;;;6123853;23;94019;-72
2022/01/01 12:04:50;;;;;;;18.02;8.90;;;15.20;80.00;;;;;;6123666;23;92768;-72
2022/01/01 12:07:20;;;;;;;15.65;9.50;;;15.20;80.00;;;;;;6124180;23;92326;-72
2022/01/01 12:10:07;;;;;;;18.05;11.05;;;15.20;80.00;;;;;;6123835;23;92419;-71
2022/01/01 12:12:38;;;;;;;32.00;24.05;;;15.20;79.70;;;;;;6102939;23;92939;-71
2022/01/01 12:15:08;;;;;;;55.33;47.80;;;15.10;79.80;;;;;;6123200;23;94810;-71
2022/01/01 12:17:48;;;;;;;33.42;29.90;;;15.10;79.80;;;;;;6148320;22;91661;-71
2022/01/01 12:20:15;;;;;;;23.88;20.40;;;15.10;79.80;;;;;;6124910;23;92400;-72
2022/01/01 12:22:44;;;;;;;117.45;105.47;;;15.10;79.80;;;;;;6124314;23;92894;-72
2022/01/01 12:25:22;;;;;;;92.05;82.03;;;15.10;79.70;;;;;;6122143;23;101295;-72
2022/01/01 12:27:51;;;;;;;28.55;24.40;;;15.00;79.60;;;;;;6122777;23;92435;-71
2022/01/01 12:30:48;;;;;;;21.38;18.98;;;15.00;80.00;;;;;;6124114;23;102049;-72
2022/01/01 12:33:40;;;;;;;34.00;30.42;;;15.00;79.80;;;;;;6124593;23;94637;-72
2022/01/01 12:36:26;;;;;;;26.33;23.27;;;14.90;80.00;;;;;;6124415;23;95864;-71
2022/01/01 12:38:55;;;;;;;15.82;10.93;;;14.90;80.00;;;;;;6122594;23;92485;-72